createdAt,value
2018-10-02T00:00:51.968Z,60.70
2018-10-02T00:03:20.465Z,60.60
2018-10-02T00:05:49.504Z,61.20
2018-10-02T00:08:19.555Z,61.00
2018-10-02T00:10:53.331Z,61.50
2018-10-02T00:13:27.489Z,62.00
2018-10-02T00:15:56.089Z,60.60
2018-10-02T00:18:25.016Z,60.90
2018-10-02T00:20:54.115Z,61.80
2018-10-02T00:23:22.775Z,61.00
2018-10-02T00:25:51.435Z,61.20
2018-10-02T00:28:20.083Z,60.90
2018-10-02T00:30:48.814Z,61.60
2018-10-02T00:33:17.312Z,62.10
2018-10-02T00:35:47.405Z,62.20
2018-10-02T00:38:16.213Z,62.20
2018-10-02T00:40:45.033Z,61.70
2018-10-02T00:43:13.742Z,62.60
2018-10-02T00:45:42.244Z,63.70
2018-10-02T00:48:11.160Z,62.80
2018-10-02T00:50:39.899Z,64.00
2018-10-02T00:53:09.024Z,64.60
2018-10-02T00:55:37.446Z,66.00
2018-10-02T00:58:06.339Z,67.00
2018-10-02T01:00:35.038Z,67.00
2018-10-02T01:03:04.041Z,67.30
2018-10-02T01:05:32.806Z,68.50
2018-10-02T01:08:01.539Z,68.10
2018-10-02T01:10:30.483Z,68.10
2018-10-02T01:12:58.992Z,68.20
2018-10-02T01:15:27.698Z,67.80
2018-10-02T01:17:56.618Z,68.40
2018-10-02T01:20:25.758Z,68.90
2018-10-02T01:22:54.321Z,69.50
2018-10-02T01:25:23.230Z,69.40
2018-10-02T01:27:51.929Z,69.40
2018-10-02T01:30:20.901Z,69.90
2018-10-02T01:32:49.762Z,69.70
2018-10-02T01:35:18.218Z,69.30
2018-10-02T01:37:47.209Z,70.20
2018-10-02T01:40:16.141Z,70.60
2018-10-02T01:42:44.897Z,69.70
2018-10-02T01:45:13.551Z,69.90
2018-10-02T01:47:42.029Z,70.00
2018-10-02T01:50:10.938Z,70.20
2018-10-02T01:52:39.492Z,71.40
2018-10-02T01:55:09.053Z,70.40
2018-10-02T01:57:37.821Z,71.40
2018-10-02T02:00:06.968Z,70.80
2018-10-02T02:02:35.596Z,72.30
2018-10-02T02:05:04.563Z,73.00
2018-10-02T02:07:33.767Z,72.50
2018-10-02T02:10:03.063Z,72.90
2018-10-02T02:12:31.723Z,74.00
2018-10-02T02:15:00.260Z,72.90
2018-10-02T02:17:29.124Z,76.50
2018-10-02T02:19:58.209Z,74.10
2018-10-02T02:22:27.070Z,73.40
2018-10-02T02:24:55.536Z,75.70
2018-10-02T02:27:24.545Z,75.20
2018-10-02T02:29:53.164Z,75.60
2018-10-02T02:32:22.732Z,75.60
2018-10-02T02:34:51.425Z,75.70
2018-10-02T02:37:20.284Z,77.40
2018-10-02T02:39:49.350Z,76.90
2018-10-02T02:42:18.757Z,76.50
2018-10-02T02:44:47.505Z,75.50
2018-10-02T02:47:21.227Z,75.50
2018-10-02T02:49:55.323Z,77.20
2018-10-02T02:52:26.059Z,77.30
2018-10-02T02:54:55.553Z,76.10
2018-10-02T02:57:24.068Z,76.90
2018-10-02T02:59:52.626Z,78.00
2018-10-02T03:02:21.630Z,77.40
2018-10-02T03:04:50.718Z,77.30
2018-10-02T03:07:19.561Z,77.80
2018-10-02T03:09:48.940Z,77.00
2018-10-02T03:12:17.944Z,78.20
2018-10-02T03:14:47.055Z,79.40
2018-10-02T03:17:16.551Z,78.80
2018-10-02T03:19:45.197Z,79.90
2018-10-02T03:22:13.753Z,78.30
2018-10-02T03:24:42.653Z,77.90
2018-10-02T03:27:12.152Z,78.60
2018-10-02T03:29:40.778Z,79.70
2018-10-02T03:32:09.941Z,79.50
2018-10-02T03:34:39.003Z,79.10
2018-10-02T03:37:07.823Z,79.60
2018-10-02T03:39:37.391Z,79.10
2018-10-02T03:42:11.524Z,78.60
2018-10-02T03:44:40.610Z,78.60
2018-10-02T03:47:09.482Z,79.30
2018-10-02T03:49:38.447Z,79.40
2018-10-02T03:52:07.404Z,80.30
2018-10-02T03:54:37.128Z,79.50
2018-10-02T03:57:05.791Z,78.70
2018-10-02T03:59:34.349Z,79.70
2018-10-02T04:02:03.580Z,80.30
2018-10-02T04:04:32.160Z,79.70
2018-10-02T04:07:01.100Z,78.40
2018-10-02T04:09:30.263Z,78.30
2018-10-02T04:11:59.703Z,78.30
2018-10-02T04:14:28.760Z,78.30
2018-10-02T04:16:57.868Z,79.10
2018-10-02T04:19:27.053Z,79.60
2018-10-02T04:21:55.799Z,80.30
2018-10-02T04:24:24.997Z,80.10
2018-10-02T04:26:53.825Z,80.40
2018-10-02T04:29:22.699Z,80.20
2018-10-02T04:31:51.160Z,80.80
2018-10-02T04:34:20.467Z,81.10
2018-10-02T04:36:49.384Z,81.10
2018-10-02T04:39:18.785Z,81.30
2018-10-02T04:41:47.741Z,81.30
2018-10-02T04:44:17.026Z,82.00
2018-10-02T04:46:45.614Z,81.60
2018-10-02T04:49:14.471Z,81.50
2018-10-02T04:51:43.076Z,81.30
2018-10-02T04:54:11.950Z,81.30
2018-10-02T04:56:40.912Z,81.60
2018-10-02T04:59:09.506Z,81.80
2018-10-02T05:01:38.189Z,83.00
2018-10-02T05:04:06.786Z,84.00
2018-10-02T05:06:36.076Z,83.20
2018-10-02T05:09:06.569Z,84.10
2018-10-02T05:11:35.801Z,85.20
2018-10-02T05:14:04.873Z,84.40
2018-10-02T05:16:33.854Z,84.40
2018-10-02T05:19:03.570Z,84.70
2018-10-02T05:21:32.695Z,84.70
2018-10-02T05:24:01.712Z,84.30
2018-10-02T05:26:30.909Z,84.70
2018-10-02T05:29:00.766Z,84.80
2018-10-02T05:31:29.886Z,85.50
2018-10-02T05:33:58.523Z,85.60
2018-10-02T05:36:27.401Z,86.10
2018-10-02T05:38:56.112Z,86.10
2018-10-02T05:41:29.093Z,85.80
2018-10-02T05:43:58.326Z,86.30
2018-10-02T05:46:27.396Z,85.70
2018-10-02T05:48:56.252Z,86.00
2018-10-02T05:51:25.121Z,85.70
2018-10-02T05:53:53.874Z,85.90
2018-10-02T05:56:23.282Z,85.90
2018-10-02T05:58:51.932Z,86.10
2018-10-02T06:01:20.945Z,87.30
2018-10-02T06:03:49.951Z,87.70
2018-10-02T06:06:18.660Z,87.20
2018-10-02T06:08:47.589Z,87.30
2018-10-02T06:11:16.446Z,87.40
2018-10-02T06:13:45.853Z,87.20
2018-10-02T06:16:15.480Z,87.00
2018-10-02T06:18:45.944Z,86.80
2018-10-02T06:21:14.630Z,87.20
2018-10-02T06:23:44.246Z,86.70
2018-10-02T06:26:13.173Z,87.30
2018-10-02T06:28:42.317Z,86.70
2018-10-02T06:31:11.964Z,86.60
2018-10-02T06:33:41.414Z,86.00
2018-10-02T06:36:10.638Z,87.10
2018-10-02T06:38:39.970Z,86.50
2018-10-02T06:41:09.254Z,86.00
2018-10-02T06:43:38.344Z,86.30
2018-10-02T06:46:07.796Z,86.10
2018-10-02T06:48:36.755Z,86.90
2018-10-02T06:51:06.107Z,86.50
2018-10-02T06:53:36.008Z,86.50
2018-10-02T06:56:18.171Z,87.10
2018-10-02T06:58:47.163Z,87.70
2018-10-02T07:01:15.930Z,87.40
2018-10-02T07:03:44.879Z,87.80
2018-10-02T07:06:13.839Z,88.10
2018-10-02T07:08:43.216Z,88.70
2018-10-02T07:11:13.753Z,88.70
2018-10-02T07:13:42.634Z,89.10
2018-10-02T07:16:11.907Z,89.30
2018-10-02T07:18:40.824Z,89.30
2018-10-02T07:21:09.710Z,89.30
2018-10-02T07:23:39.808Z,89.90
2018-10-02T07:26:09.200Z,89.50
2018-10-02T07:28:38.582Z,89.40
2018-10-02T07:31:08.494Z,89.50
2018-10-02T07:33:36.986Z,89.50
2018-10-02T07:36:05.648Z,89.80
2018-10-02T07:38:34.828Z,90.10
2018-10-02T07:41:04.119Z,89.80
2018-10-02T07:43:33.373Z,89.40
2018-10-02T07:46:02.504Z,90.00
2018-10-02T07:48:33.189Z,90.00
2018-10-02T07:51:02.478Z,90.00
2018-10-02T07:53:31.058Z,90.00
2018-10-02T07:55:59.984Z,90.30
2018-10-02T07:58:30.947Z,90.20
2018-10-02T08:01:00.369Z,90.50
2018-10-02T08:03:28.993Z,90.40
2018-10-02T08:05:58.656Z,90.10
2018-10-02T08:08:28.045Z,90.60
2018-10-02T08:10:59.178Z,90.50
2018-10-02T08:13:29.386Z,90.30
2018-10-02T08:15:58.367Z,90.10
2018-10-02T08:18:27.813Z,90.10
2018-10-02T08:20:56.741Z,90.10
2018-10-02T08:23:25.941Z,90.00
2018-10-02T08:25:55.297Z,89.10
2018-10-02T08:28:23.877Z,89.30
2018-10-02T08:30:52.939Z,88.80
2018-10-02T08:33:22.487Z,88.50
2018-10-02T08:35:51.203Z,88.90
2018-10-02T08:38:19.864Z,88.90
2018-10-02T08:40:49.165Z,88.70
2018-10-02T08:43:18.154Z,89.10
2018-10-02T08:45:50.619Z,89.50
2018-10-02T08:48:19.478Z,88.90
2018-10-02T08:50:48.095Z,88.90
2018-10-02T08:53:19.401Z,88.20
2018-10-02T08:55:48.324Z,88.50
2018-10-02T08:58:17.639Z,88.50
2018-10-02T09:00:46.995Z,88.50
2018-10-02T09:03:16.153Z,88.40
2018-10-02T09:05:45.546Z,88.00
2018-10-02T09:08:14.745Z,88.50
2018-10-02T09:10:43.583Z,87.80
2018-10-02T09:13:12.410Z,88.40
2018-10-02T09:15:41.324Z,87.80
2018-10-02T09:18:10.017Z,88.10
2018-10-02T09:20:39.240Z,87.20
2018-10-02T09:23:07.851Z,87.80
2018-10-02T09:25:37.444Z,87.40
2018-10-02T09:28:06.495Z,87.20
2018-10-02T09:30:40.906Z,87.60
2018-10-02T09:33:15.326Z,88.40
2018-10-02T09:35:50.313Z,88.40
2018-10-02T09:38:24.488Z,88.00
2018-10-02T09:40:59.523Z,87.70
2018-10-02T09:43:39.538Z,87.20
2018-10-02T09:46:08.354Z,87.60
2018-10-02T09:48:37.276Z,87.80
2018-10-02T09:51:10.451Z,88.00
2018-10-02T09:53:39.780Z,87.60
2018-10-02T09:56:08.901Z,87.30
2018-10-02T09:58:38.136Z,87.10
2018-10-02T10:01:11.147Z,86.50
2018-10-02T10:03:39.684Z,86.00
2018-10-02T10:06:08.678Z,86.60
2018-10-02T10:08:38.273Z,86.00
2018-10-02T10:11:08.057Z,86.30
2018-10-02T10:13:37.294Z,85.60
2018-10-02T10:16:06.710Z,86.00
2018-10-02T10:18:35.488Z,86.20
2018-10-02T10:21:04.081Z,86.60
2018-10-02T10:23:32.955Z,86.70
2018-10-02T10:26:03.071Z,87.50
2018-10-02T10:28:31.730Z,86.90
2018-10-02T10:31:00.718Z,86.30
2018-10-02T10:33:30.472Z,86.10
2018-10-02T10:35:59.648Z,86.40
2018-10-02T10:38:29.040Z,86.00
2018-10-02T10:40:58.885Z,86.80
2018-10-02T10:43:28.072Z,87.00
2018-10-02T10:45:57.228Z,86.80
2018-10-02T10:48:26.500Z,85.90
2018-10-02T10:50:55.665Z,85.30
2018-10-02T10:53:24.467Z,84.70
2018-10-02T10:55:54.199Z,86.30
2018-10-02T10:58:23.261Z,84.50
2018-10-02T11:00:52.106Z,83.00
2018-10-02T11:03:20.846Z,83.10
2018-10-02T11:05:50.477Z,83.40
2018-10-02T11:08:19.177Z,82.50
2018-10-02T11:10:49.016Z,83.10
2018-10-02T11:13:17.892Z,82.50
2018-10-02T11:15:46.806Z,82.50
2018-10-02T11:18:16.756Z,81.90
2018-10-02T11:20:45.834Z,82.50
2018-10-02T11:23:17.089Z,82.50
2018-10-02T11:25:45.827Z,83.90
2018-10-02T11:28:14.825Z,83.10
2018-10-02T11:30:45.088Z,81.00
2018-10-02T11:33:13.868Z,79.00
2018-10-02T11:35:43.701Z,79.00
2018-10-02T11:38:12.998Z,79.00
2018-10-02T11:40:41.935Z,80.30
2018-10-02T11:43:11.265Z,79.60
2018-10-02T11:45:40.300Z,78.30
2018-10-02T11:48:09.455Z,77.60
2018-10-02T11:50:38.735Z,77.90
2018-10-02T11:53:08.094Z,79.00
2018-10-02T11:55:37.070Z,79.00
2018-10-02T11:58:06.564Z,79.70
2018-10-02T12:00:35.561Z,76.50
2018-10-02T12:03:04.549Z,80.20
2018-10-02T12:05:34.535Z,79.40
2018-10-02T12:08:03.800Z,75.70
2018-10-02T12:10:32.690Z,72.80
2018-10-02T12:13:01.437Z,72.90
2018-10-02T12:15:30.675Z,68.20
2018-10-02T12:17:59.917Z,67.30
2018-10-02T12:20:28.733Z,69.30
2018-10-02T12:22:58.542Z,69.60
2018-10-02T12:25:27.340Z,61.90
2018-10-02T12:27:56.241Z,67.30
2018-10-02T12:30:25.209Z,65.10
2018-10-02T12:32:54.256Z,66.30
2018-10-02T12:35:24.526Z,66.00
2018-10-02T12:37:53.536Z,68.30
2018-10-02T12:40:22.585Z,70.30
2018-10-02T12:42:51.666Z,61.00
2018-10-02T12:45:21.360Z,58.10
2018-10-02T12:47:50.830Z,60.90
2018-10-02T12:50:19.738Z,60.40
2018-10-02T12:52:49.041Z,61.80
2018-10-02T12:55:17.838Z,62.50
2018-10-02T12:57:48.783Z,64.60
2018-10-02T13:00:17.933Z,63.90
2018-10-02T13:02:47.102Z,64.80
2018-10-02T13:05:16.236Z,65.80
2018-10-02T13:07:45.276Z,70.20
2018-10-02T13:10:14.739Z,64.00
2018-10-02T13:12:43.851Z,59.30
2018-10-02T13:15:13.249Z,61.70
2018-10-02T13:17:42.137Z,58.10
2018-10-02T13:20:15.958Z,57.60
2018-10-02T13:22:45.334Z,57.00
2018-10-02T13:25:18.348Z,59.50
2018-10-02T13:27:47.616Z,56.60
2018-10-02T13:30:17.101Z,54.80
2018-10-02T13:32:47.837Z,56.50
2018-10-02T13:35:17.191Z,48.10
2018-10-02T13:37:47.372Z,50.50
2018-10-02T13:40:16.070Z,49.10
2018-10-02T13:42:45.084Z,48.80
2018-10-02T13:45:14.120Z,45.00
2018-10-02T13:47:42.965Z,42.70
2018-10-02T13:50:12.003Z,45.50
2018-10-02T13:52:41.482Z,47.30
2018-10-02T13:55:11.715Z,48.70
2018-10-02T13:57:41.361Z,46.70
2018-10-02T14:00:11.514Z,46.50
2018-10-02T14:02:40.788Z,48.70
2018-10-02T14:05:09.359Z,48.10
2018-10-02T14:07:38.759Z,50.10
2018-10-02T14:10:07.985Z,51.40
2018-10-02T14:12:37.971Z,48.60
2018-10-02T14:15:11.962Z,41.80
2018-10-02T14:17:41.252Z,43.30
2018-10-02T14:20:10.831Z,42.90
2018-10-02T14:22:39.657Z,44.20
2018-10-02T14:25:08.339Z,48.10
2018-10-02T14:27:37.394Z,50.40
2018-10-02T14:30:08.709Z,48.60
2018-10-02T14:32:39.516Z,47.30
2018-10-02T14:35:08.987Z,44.70
2018-10-02T14:37:38.275Z,44.30
2018-10-02T14:40:07.327Z,43.70
2018-10-02T14:42:36.625Z,41.80
2018-10-02T14:45:05.950Z,43.10
2018-10-02T14:47:35.692Z,45.00
2018-10-02T14:50:05.020Z,40.70
2018-10-02T14:52:34.788Z,42.40
2018-10-02T14:55:04.083Z,42.00
2018-10-02T14:57:34.389Z,42.80
2018-10-02T15:00:03.829Z,41.20
2018-10-02T15:02:35.332Z,42.40
2018-10-02T15:05:05.022Z,43.20
2018-10-02T15:07:34.653Z,43.50
2018-10-02T15:10:06.202Z,43.30
2018-10-02T15:12:36.245Z,43.20
2018-10-02T15:15:05.396Z,45.30
2018-10-02T15:17:35.652Z,46.80
2018-10-02T15:20:04.699Z,47.70
2018-10-02T15:22:33.974Z,48.20
2018-10-02T15:25:05.288Z,49.50
2018-10-02T15:27:35.233Z,50.50
2018-10-02T15:30:04.140Z,52.60
2018-10-02T15:32:33.452Z,50.20
2018-10-02T15:35:02.882Z,52.70
2018-10-02T15:37:32.366Z,52.50
2018-10-02T15:40:02.193Z,54.40
2018-10-02T15:42:33.240Z,53.90
2018-10-02T15:45:02.657Z,53.90
2018-10-02T15:47:32.198Z,52.70
2018-10-02T15:50:02.090Z,56.00
2018-10-02T15:52:31.206Z,54.50
2018-10-02T15:55:00.508Z,53.70
2018-10-02T15:57:30.201Z,55.70
2018-10-02T15:59:59.291Z,55.30
2018-10-02T16:02:29.721Z,53.50
2018-10-02T16:04:59.211Z,54.80
2018-10-02T16:07:29.183Z,55.00
2018-10-02T16:09:58.568Z,54.70
2018-10-02T16:13:01.395Z,54.80
2018-10-02T16:15:46.444Z,56.30
2018-10-02T16:18:16.070Z,55.40
2018-10-02T16:20:45.072Z,56.50
2018-10-02T16:23:14.499Z,55.60
2018-10-02T16:25:44.180Z,56.30
2018-10-02T16:28:13.150Z,56.20
2018-10-02T16:30:41.842Z,56.80
2018-10-02T16:33:10.538Z,56.90
2018-10-02T16:35:40.175Z,57.70
2018-10-02T16:38:09.761Z,56.70
2018-10-02T16:40:38.610Z,57.20
2018-10-02T16:43:07.587Z,56.70
2018-10-02T16:45:36.728Z,57.50
2018-10-02T16:48:06.831Z,57.80
2018-10-02T16:50:35.678Z,56.90
2018-10-02T16:53:04.820Z,57.40
2018-10-02T16:55:33.993Z,57.40
2018-10-02T16:58:02.916Z,56.70
2018-10-02T17:00:32.067Z,57.20
2018-10-02T17:03:01.727Z,57.50
2018-10-02T17:05:31.295Z,57.10
2018-10-02T17:08:00.925Z,57.60
2018-10-02T17:10:30.601Z,58.30
2018-10-02T17:13:00.491Z,59.50
2018-10-02T17:15:29.348Z,58.70
2018-10-02T17:17:59.318Z,58.70
2018-10-02T17:20:36.660Z,58.50
2018-10-02T17:23:13.390Z,58.60
2018-10-02T17:25:43.251Z,58.70
2018-10-02T17:28:13.341Z,59.10
2018-10-02T17:30:45.779Z,58.70
2018-10-02T17:33:27.321Z,58.60
2018-10-02T17:36:06.492Z,59.60
2018-10-02T17:38:42.137Z,58.70
2018-10-02T17:41:14.496Z,58.60
2018-10-02T17:43:48.072Z,59.20
2018-10-02T17:46:19.544Z,58.80
2018-10-02T17:48:52.329Z,58.60
2018-10-02T17:51:22.463Z,59.40
2018-10-02T17:54:10.245Z,59.10
2018-10-02T17:56:44.315Z,59.50
2018-10-02T17:59:26.770Z,59.20
2018-10-02T18:05:03.352Z,59.30
2018-10-02T18:07:32.914Z,59.60
2018-10-02T18:10:22.053Z,60.40
2018-10-02T18:13:15.159Z,61.70
2018-10-02T18:15:54.110Z,61.00
2018-10-02T18:18:28.072Z,60.90
2018-10-02T18:21:06.289Z,60.50
2018-10-02T18:23:38.450Z,61.20
2018-10-02T18:26:08.711Z,61.20
2018-10-02T18:28:49.175Z,61.20
2018-10-02T18:31:29.970Z,61.60
2018-10-02T18:34:09.809Z,62.20
2018-10-02T18:37:01.100Z,62.50
2018-10-02T18:39:31.584Z,61.80
2018-10-02T18:42:02.031Z,62.60
2018-10-02T18:44:31.308Z,61.60
2018-10-02T18:47:00.586Z,62.00
2018-10-02T18:49:29.685Z,63.00
2018-10-02T18:51:58.677Z,62.30
2018-10-02T18:54:28.024Z,62.30
2018-10-02T18:56:57.217Z,62.40
2018-10-02T18:59:27.568Z,62.70
2018-10-02T19:01:57.298Z,63.10
2018-10-02T19:04:28.447Z,63.20
2018-10-02T19:07:01.263Z,63.10
2018-10-02T19:09:35.315Z,63.30
2018-10-02T19:12:14.023Z,63.60
2018-10-02T19:14:46.639Z,63.70
2018-10-02T19:17:16.447Z,63.40
2018-10-02T19:19:50.706Z,63.50
2018-10-02T19:22:23.905Z,63.90
2018-10-02T19:24:52.830Z,63.70
2018-10-02T19:27:22.332Z,63.60
2018-10-02T19:29:56.230Z,64.20
2018-10-02T19:32:26.335Z,63.90
2018-10-02T19:34:55.403Z,64.40
2018-10-02T19:37:29.479Z,64.70
2018-10-02T19:39:58.782Z,64.90
2018-10-02T19:42:28.419Z,64.40
2018-10-02T19:44:57.227Z,64.30
2018-10-02T19:47:26.655Z,64.30
2018-10-02T19:49:55.646Z,64.30
2018-10-02T19:52:24.511Z,64.90
2018-10-02T19:54:53.719Z,65.70
2018-10-02T19:57:24.272Z,65.00
2018-10-02T19:59:55.054Z,65.90
2018-10-02T20:02:24.564Z,66.20
2018-10-02T20:04:54.556Z,66.20
2018-10-02T20:07:23.328Z,65.30
2018-10-02T20:09:52.576Z,65.70
2018-10-02T20:12:22.827Z,65.50
2018-10-02T20:15:11.660Z,65.30
2018-10-02T20:17:42.028Z,65.20
2018-10-02T20:20:11.773Z,65.80
2018-10-02T20:22:40.877Z,65.80
2018-10-02T20:25:10.029Z,65.50
2018-10-02T20:30:54.223Z,66.90
2018-10-02T20:33:34.479Z,65.90
2018-10-02T20:36:32.889Z,65.60
2018-10-02T20:39:14.714Z,66.20
2018-10-02T20:41:44.180Z,66.50
2018-10-02T20:44:13.405Z,67.10
2018-10-02T20:46:42.474Z,66.20
2018-10-02T20:49:11.380Z,66.30
2018-10-02T20:58:34.031Z,66.60
2018-10-02T21:01:03.815Z,66.70
2018-10-02T21:03:33.998Z,66.70
2018-10-02T21:06:02.630Z,66.90
2018-10-02T21:08:34.914Z,66.70
2018-10-02T21:11:03.950Z,67.40
2018-10-02T21:13:45.526Z,67.60
2018-10-02T21:16:15.102Z,66.90
2018-10-02T21:18:44.281Z,65.90
2018-10-02T21:21:13.138Z,66.40
2018-10-02T21:23:42.791Z,66.10
2018-10-02T21:26:12.301Z,67.00
2018-10-02T21:28:41.595Z,67.10
2018-10-02T21:31:34.511Z,66.90
2018-10-02T21:34:04.074Z,67.70
2018-10-02T21:36:33.078Z,67.30
2018-10-02T21:39:02.651Z,67.60
2018-10-02T21:41:34.378Z,67.50
2018-10-02T21:44:06.614Z,67.40
2018-10-02T21:46:38.389Z,67.30
2018-10-02T21:49:08.674Z,67.60
2018-10-02T21:51:37.778Z,67.60
2018-10-02T21:54:06.603Z,67.40
2018-10-02T21:56:35.654Z,68.00
2018-10-02T21:59:05.426Z,68.20
2018-10-02T22:01:34.740Z,67.90
2018-10-02T22:04:03.464Z,67.60
2018-10-02T22:06:32.318Z,67.50
2018-10-02T22:09:01.891Z,67.60
2018-10-02T22:11:30.955Z,68.90
2018-10-02T22:14:00.339Z,67.70
2018-10-02T22:16:29.452Z,67.80
2018-10-02T22:18:59.150Z,68.40
2018-10-02T22:21:33.097Z,67.90
2018-10-02T22:24:04.406Z,68.00
2018-10-02T22:26:33.749Z,68.00
2018-10-02T22:29:02.947Z,67.90
2018-10-02T22:31:32.734Z,68.90
2018-10-02T22:34:01.608Z,68.40
2018-10-02T22:36:30.165Z,68.80
2018-10-02T22:38:59.140Z,68.60
2018-10-02T22:41:28.306Z,68.90
2018-10-02T22:43:57.068Z,68.90
2018-10-02T22:46:25.608Z,68.40
2018-10-02T22:48:54.405Z,68.40
2018-10-02T22:51:23.136Z,68.30
2018-10-02T22:53:52.316Z,68.20
2018-10-02T22:56:21.062Z,68.50
2018-10-02T22:58:49.804Z,68.20
2018-10-02T23:01:19.499Z,68.70
2018-10-02T23:03:48.656Z,68.40
2018-10-02T23:06:18.078Z,68.20
2018-10-02T23:08:47.202Z,68.30
2018-10-02T23:11:16.882Z,67.90
2018-10-02T23:13:45.681Z,68.00
2018-10-02T23:16:14.997Z,68.00
2018-10-02T23:18:43.681Z,68.20
2018-10-02T23:21:12.676Z,68.30
2018-10-02T23:23:47.901Z,68.00
2018-10-02T23:26:17.511Z,68.40
2018-10-02T23:28:46.911Z,68.20
2018-10-02T23:31:15.758Z,67.60
2018-10-02T23:33:44.982Z,67.80
2018-10-02T23:36:13.871Z,67.60
2018-10-02T23:38:42.643Z,68.00
2018-10-02T23:41:11.485Z,68.20
2018-10-02T23:43:41.227Z,67.90
2018-10-02T23:46:10.718Z,67.60
2018-10-02T23:48:39.278Z,68.30
2018-10-02T23:51:07.846Z,68.20
2018-10-02T23:53:36.428Z,67.90
2018-10-02T23:56:05.560Z,68.20
2018-10-02T23:58:34.017Z,68.80
